sensor_id;sensor_type;location;lat;lon;timestamp;pressure;altitude;pressure_sealevel;temperature;humidity
14902;BME280;7542;49.078;9.194;2023-05-12T00:00:05;98323.56;;;29.28;31.69
14902;BME280;7542;49.078;9.194;2023-05-12T00:01:08;98322.28;;;29.26;31.67
14902;BME280;7542;49.078;9.194;2023-05-12T00:02:10;98319.09;;;29.24;31.71
14902;BME280;7542;49.078;9.194;2023-05-12T00:03:13;98320.19;;;29.23;31.53
14902;BME280;7542;49.078;9.194;2023-05-12T00:04:15;98320.50;;;29.21;31.65
14902;BME280;7542;49.078;9.194;2023-05-12T00:05:17;98322.38;;;29.21;32.07
14902;BME280;7542;49.078;9.194;2023-05-12T00:06:20;98318.34;;;29.18;31.81
14902;BME280;7542;49.078;9.194;2023-05-12T00:07:22;98320.25;;;29.17;32.24
14902;BME280;7542;49.078;9.194;2023-05-12T00:08:24;98312.75;;;29.14;31.77
14902;BME280;7542;49.078;9.194;2023-05-12T00:09:26;98309.75;;;29.16;31.96
14902;BME280;7542;49.078;9.194;2023-05-12T00:10:29;98314.66;;;29.14;31.83
14902;BME280;7542;49.078;9.194;2023-05-12T00:11:31;98313.06;;;29.13;31.83
14902;BME280;7542;49.078;9.194;2023-05-12T00:12:33;98312.56;;;29.11;32.27
14902;BME280;7542;49.078;9.194;2023-05-12T00:13:35;98307.97;;;29.11;32.26
14902;BME280;7542;49.078;9.194;2023-05-12T00:14:37;98311.75;;;29.10;32.10
14902;BME280;7542;49.078;9.194;2023-05-12T00:15:40;98317.16;;;29.10;32.31
14902;BME280;7542;49.078;9.194;2023-05-12T00:16:42;98303.94;;;29.09;31.87
14902;BME280;7542;49.078;9.194;2023-05-12T00:17:44;98305.34;;;29.06;32.04
14902;BME280;7542;49.078;9.194;2023-05-12T00:18:46;98312.63;;;29.06;32.04
14902;BME280;7542;49.078;9.194;2023-05-12T00:19:48;98308.03;;;29.06;32.11
14902;BME280;7542;49.078;9.194;2023-05-12T00:20:50;98307.25;;;29.06;32.19
14902;BME280;7542;49.078;9.194;2023-05-12T00:21:54;98304.84;;;29.04;31.96
14902;BME280;7542;49.078;9.194;2023-05-12T00:22:56;98305.16;;;29.03;32.22
14902;BME280;7542;49.078;9.194;2023-05-12T00:23:58;98299.75;;;29.03;32.21
14902;BME280;7542;49.078;9.194;2023-05-12T00:25:00;98301.16;;;29.00;32.40
14902;BME280;7542;49.078;9.194;2023-05-12T00:26:02;98304.94;;;28.99;32.40
14902;BME280;7542;49.078;9.194;2023-05-12T00:27:05;98303.84;;;29.00;32.34
14902;BME280;7542;49.078;9.194;2023-05-12T00:28:08;98300.66;;;28.98;32.22
14902;BME280;7542;49.078;9.194;2023-05-12T00:29:10;98307.91;;;28.98;32.32
14902;BME280;7542;49.078;9.194;2023-05-12T00:30:12;98298.22;;;28.97;32.31
14902;BME280;7542;49.078;9.194;2023-05-12T00:31:14;98302.81;;;28.96;32.49
14902;BME280;7542;49.078;9.194;2023-05-12T00:32:16;98294.72;;;28.96;32.27
14902;BME280;7542;49.078;9.194;2023-05-12T00:33:18;98299.31;;;28.96;32.08
14902;BME280;7542;49.078;9.194;2023-05-12T00:34:20;98304.72;;;28.96;32.44
14902;BME280;7542;49.078;9.194;2023-05-12T00:35:22;98298.53;;;28.95;32.27
14902;BME280;7542;49.078;9.194;2023-05-12T00:36:25;98301.22;;;28.95;32.03
14902;BME280;7542;49.078;9.194;2023-05-12T00:37:27;98301.53;;;28.94;32.17
14902;BME280;7542;49.078;9.194;2023-05-12T00:38:29;98301.53;;;28.94;32.26
14902;BME280;7542;49.078;9.194;2023-05-12T00:39:31;98297.22;;;28.93;32.35
14902;BME280;7542;49.078;9.194;2023-05-12T00:40:33;98295.31;;;28.93;32.55
14902;BME280;7542;49.078;9.194;2023-05-12T00:41:35;98299.91;;;28.93;32.60
14902;BME280;7542;49.078;9.194;2023-05-12T00:42:37;98304.53;;;28.92;32.69
14902;BME280;7542;49.078;9.194;2023-05-12T00:43:39;98296.72;;;28.91;32.25
14902;BME280;7542;49.078;9.194;2023-05-12T00:44:41;98292.13;;;28.91;32.60
14902;BME280;7542;49.078;9.194;2023-05-12T00:45:43;98292.13;;;28.91;32.41
14902;BME280;7542;49.078;9.194;2023-05-12T00:46:45;98295.63;;;28.92;32.79
14902;BME280;7542;49.078;9.194;2023-05-12T00:47:49;98292.91;;;28.92;32.41
14902;BME280;7542;49.078;9.194;2023-05-12T00:48:52;98292.63;;;28.93;32.23
14902;BME280;7542;49.078;9.194;2023-05-12T00:49:54;98294.81;;;28.91;32.50
14902;BME280;7542;49.078;9.194;2023-05-12T00:50:57;98294.53;;;28.93;32.73
14902;BME280;7542;49.078;9.194;2023-05-12T00:52:02;98287.53;;;28.92;32.61
14902;BME280;7542;49.078;9.194;2023-05-12T00:53:05;98291.81;;;28.93;32.43
14902;BME280;7542;49.078;9.194;2023-05-12T00:54:08;98288.31;;;28.92;32.61
14902;BME280;7542;49.078;9.194;2023-05-12T00:55:10;98291.31;;;28.91;32.64
14902;BME280;7542;49.078;9.194;2023-05-12T00:56:12;98288.63;;;28.91;32.80
14902;BME280;7542;49.078;9.194;2023-05-12T00:57:18;98294.03;;;28.91;32.72
14902;BME280;7542;49.078;9.194;2023-05-12T00:58:21;98291.03;;;28.92;32.98
14902;BME280;7542;49.078;9.194;2023-05-12T00:59:23;98294.81;;;28.91;32.72
14902;BME280;7542;49.078;9.194;2023-05-12T01:00:25;98293.72;;;28.92;32.90
14902;BME280;7542;49.078;9.194;2023-05-12T01:01:27;98293.72;;;28.92;33.13
14902;BME280;7542;49.078;9.194;2023-05-12T01:02:30;98292.91;;;28.92;33.09
14902;BME280;7542;49.078;9.194;2023-05-12T01:03:33;98296.41;;;28.92;33.10
14902;BME280;7542;49.078;9.194;2023-05-12T01:04:36;98296.13;;;28.94;32.90
14902;BME280;7542;49.078;9.194;2023-05-12T01:07:18;98299.31;;;28.96;32.69
14902;BME280;7542;49.078;9.194;2023-05-12T01:08:23;98298.31;;;28.92;32.94
14902;BME280;7542;49.078;9.194;2023-05-12T01:09:25;98301.81;;;28.92;33.25
14902;BME280;7542;49.078;9.194;2023-05-12T01:10:27;98301.31;;;28.90;32.94
14902;BME280;7542;49.078;9.194;2023-05-12T01:11:29;98305.63;;;28.91;32.89
14902;BME280;7542;49.078;9.194;2023-05-12T01:12:31;98298.63;;;28.90;32.99
14902;BME280;7542;49.078;9.194;2023-05-12T01:13:34;98298.63;;;28.90;32.79
14902;BME280;7542;49.078;9.194;2023-05-12T01:14:37;98301.84;;;28.87;33.10
14902;BME280;7542;49.078;9.194;2023-05-12T01:15:46;98302.41;;;28.89;32.80
14902;BME280;7542;49.078;9.194;2023-05-12T01:16:54;98294.31;;;28.89;32.95
14902;BME280;7542;49.078;9.194;2023-05-12T01:18:01;98298.13;;;28.88;32.75
14902;BME280;7542;49.078;9.194;2023-05-12T01:19:08;98296.47;;;28.87;32.99
14902;BME280;7542;49.078;9.194;2023-05-12T01:20:17;98295.16;;;28.84;32.92
14902;BME280;7542;49.078;9.194;2023-05-12T01:21:19;98295.66;;;28.86;32.83
14902;BME280;7542;49.078;9.194;2023-05-12T01:22:22;98295.16;;;28.84;32.79
14902;BME280;7542;49.078;9.194;2023-05-12T01:23:35;98300.81;;;28.88;33.07
14902;BME280;7542;49.078;9.194;2023-05-12T01:24:48;98289.47;;;28.86;32.87
14902;BME280;7542;49.078;9.194;2023-05-12T01:25:53;98289.25;;;28.82;33.20
14902;BME280;7542;49.078;9.194;2023-05-12T01:26:56;98288.47;;;28.82;32.80
14902;BME280;7542;49.078;9.194;2023-05-12T01:28:00;98289.25;;;28.82;32.98
14902;BME280;7542;49.078;9.194;2023-05-12T01:29:03;98290.38;;;28.81;33.17
14902;BME280;7542;49.078;9.194;2023-05-12T01:30:08;98289.88;;;28.79;33.04
14902;BME280;7542;49.078;9.194;2023-05-12T01:31:13;98286.38;;;28.79;32.94
14902;BME280;7542;49.078;9.194;2023-05-12T01:32:15;98286.38;;;28.79;33.16
14902;BME280;7542;49.078;9.194;2023-05-12T01:33:17;98283.66;;;28.79;32.99
14902;BME280;7542;49.078;9.194;2023-05-12T01:34:20;98284.78;;;28.78;33.13
14902;BME280;7542;49.078;9.194;2023-05-12T01:35:22;98290.16;;;28.78;32.99
14902;BME280;7542;49.078;9.194;2023-05-12T01:36:24;98289.38;;;28.77;32.79
14902;BME280;7542;49.078;9.194;2023-05-12T01:37:26;98290.16;;;28.78;32.84
14902;BME280;7542;49.078;9.194;2023-05-12T01:38:28;98281.84;;;28.74;33.26
14902;BME280;7542;49.078;9.194;2023-05-12T01:39:30;98286.13;;;28.75;33.17
14902;BME280;7542;49.078;9.194;2023-05-12T01:40:32;98285.34;;;28.75;32.73
14902;BME280;7542;49.078;9.194;2023-05-12T01:41:34;98289.13;;;28.74;33.09
14902;BME280;7542;49.078;9.194;2023-05-12T01:42:40;98289.13;;;28.74;33.08
14902;BME280;7542;49.078;9.194;2023-05-12T01:43:42;98283.75;;;28.74;33.14
14902;BME280;7542;49.078;9.194;2023-05-12T01:44:44;98284.03;;;28.72;33.14
14902;BME280;7542;49.078;9.194;2023-05-12T01:45:46;98289.44;;;28.72;33.29
14902;BME280;7542;49.078;9.194;2023-05-12T01:46:48;98288.34;;;28.73;32.98
14902;BME280;7542;49.078;9.194;2023-05-12T01:47:50;98289.72;;;28.71;33.17
14902;BME280;7542;49.078;9.194;2023-05-12T01:48:52;98295.94;;;28.71;33.17
14902;BME280;7542;49.078;9.194;2023-05-12T01:49:54;98296.22;;;28.70;33.06
14902;BME280;7542;49.078;9.194;2023-05-12T01:50:59;98297.03;;;28.70;32.85
14902;BME280;7542;49.078;9.194;2023-05-12T01:52:02;98295.13;;;28.71;33.09
14902;BME280;7542;49.078;9.194;2023-05-12T01:53:04;98302.44;;;28.70;33.23
14902;BME280;7542;49.078;9.194;2023-05-12T01:54:06;98293.84;;;28.68;33.13
14902;BME280;7542;49.078;9.194;2023-05-12T01:55:08;98301.13;;;28.68;32.85
14902;BME280;7542;49.078;9.194;2023-05-12T01:56:10;98290.91;;;28.65;33.12
14902;BME280;7542;49.078;9.194;2023-05-12T01:57:12;98294.41;;;28.65;33.22
14902;BME280;7542;49.078;9.194;2023-05-12T01:58:14;98299.53;;;28.67;33.04
14902;BME280;7542;49.078;9.194;2023-05-12T01:59:15;98303.59;;;28.64;33.22
14902;BME280;7542;49.078;9.194;2023-05-12T02:00:17;98304.38;;;28.65;32.97
14902;BME280;7542;49.078;9.194;2023-05-12T02:01:20;98295.78;;;28.63;33.21
14902;BME280;7542;49.078;9.194;2023-05-12T02:02:23;98304.19;;;28.61;33.33
14902;BME280;7542;49.078;9.194;2023-05-12T02:03:25;98297.69;;;28.62;33.04
14902;BME280;7542;49.078;9.194;2023-05-12T02:04:28;98303.88;;;28.63;32.86
14902;BME280;7542;49.078;9.194;2023-05-12T02:05:29;98304.97;;;28.62;32.97
14902;BME280;7542;49.078;9.194;2023-05-12T02:06:32;98298.78;;;28.61;33.28
14902;BME280;7542;49.078;9.194;2023-05-12T02:07:34;98291.00;;;28.59;33.09
14902;BME280;7542;49.078;9.194;2023-05-12T02:08:36;98298.78;;;28.61;32.80
14902;BME280;7542;49.078;9.194;2023-05-12T02:09:38;98295.09;;;28.57;32.99
14902;BME280;7542;49.078;9.194;2023-05-12T02:10:40;98291.28;;;28.58;32.94
14902;BME280;7542;49.078;9.194;2023-05-12T02:11:42;98299.38;;;28.58;32.96
14902;BME280;7542;49.078;9.194;2023-05-12T02:12:44;98301.28;;;28.57;33.08
14902;BME280;7542;49.078;9.194;2023-05-12T02:13:46;98295.88;;;28.57;33.21
14902;BME280;7542;49.078;9.194;2023-05-12T02:14:48;98297.00;;;28.56;32.90
14902;BME280;7542;49.078;9.194;2023-05-12T02:15:50;98295.38;;;28.55;32.90
14902;BME280;7542;49.078;9.194;2023-05-12T02:16:52;98295.66;;;28.54;33.03
14902;BME280;7542;49.078;9.194;2023-05-12T02:17:56;98292.16;;;28.53;33.26
14902;BME280;7542;49.078;9.194;2023-05-12T02:18:59;98291.34;;;28.53;33.04
14902;BME280;7542;49.078;9.194;2023-05-12T02:20:01;98293.25;;;28.52;33.29
14902;BME280;7542;49.078;9.194;2023-05-12T02:21:03;98297.56;;;28.53;33.31
14902;BME280;7542;49.078;9.194;2023-05-12T02:22:05;98297.56;;;28.53;32.87
14902;BME280;7542;49.078;9.194;2023-05-12T02:23:08;98297.84;;;28.52;33.16
14902;BME280;7542;49.078;9.194;2023-05-12T02:24:10;98297.34;;;28.50;33.08
14902;BME280;7542;49.078;9.194;2023-05-12T02:25:14;98290.06;;;28.50;33.29
14902;BME280;7542;49.078;9.194;2023-05-12T02:26:16;98297.34;;;28.50;33.31
14902;BME280;7542;49.078;9.194;2023-05-12T02:27:20;98292.75;;;28.50;33.11
14902;BME280;7542;49.078;9.194;2023-05-12T02:28:22;98293.06;;;28.49;33.46
14902;BME280;7542;49.078;9.194;2023-05-12T02:29:24;98290.66;;;28.47;33.17
14902;BME280;7542;49.078;9.194;2023-05-12T02:30:26;98290.66;;;28.47;32.95
14902;BME280;7542;49.078;9.194;2023-05-12T02:31:28;98297.16;;;28.46;33.18
14902;BME280;7542;49.078;9.194;2023-05-12T02:32:30;98289.34;;;28.45;33.18
14902;BME280;7542;49.078;9.194;2023-05-12T02:33:33;98283.97;;;28.45;33.16
14902;BME280;7542;49.078;9.194;2023-05-12T02:34:35;98290.16;;;28.45;33.08
14902;BME280;7542;49.078;9.194;2023-05-12T02:35:37;98291.50;;;28.43;33.30
14902;BME280;7542;49.078;9.194;2023-05-12T02:36:39;98289.63;;;28.43;33.17
14902;BME280;7542;49.078;9.194;2023-05-12T02:37:41;98292.03;;;28.45;33.00
14902;BME280;7542;49.078;9.194;2023-05-12T02:38:42;98286.13;;;28.43;33.14
14902;BME280;7542;49.078;9.194;2023-05-12T02:39:44;98288.81;;;28.43;33.05
14902;BME280;7542;49.078;9.194;2023-05-12T02:40:46;98283.72;;;28.41;33.33
14902;BME280;7542;49.078;9.194;2023-05-12T02:41:48;98288.31;;;28.41;33.19
14902;BME280;7542;49.078;9.194;2023-05-12T02:42:50;98288.63;;;28.39;33.31
14902;BME280;7542;49.078;9.194;2023-05-12T02:43:52;98281.03;;;28.41;33.10
14902;BME280;7542;49.078;9.194;2023-05-12T02:44:54;98288.31;;;28.41;33.13
14902;BME280;7542;49.078;9.194;2023-05-12T02:45:56;98280.53;;;28.39;33.00
14902;BME280;7542;49.078;9.194;2023-05-12T02:46:58;98284.31;;;28.38;33.08
14902;BME280;7542;49.078;9.194;2023-05-12T02:48:00;98277.63;;;28.36;33.32
14902;BME280;7542;49.078;9.194;2023-05-12T02:49:02;98279.22;;;28.37;33.22
14902;BME280;7542;49.078;9.194;2023-05-12T02:50:05;98282.22;;;28.35;33.17
14902;BME280;7542;49.078;9.194;2023-05-12T02:51:07;98287.59;;;28.35;33.14
14902;BME280;7542;49.078;9.194;2023-05-12T02:52:10;98283.81;;;28.36;33.32
14902;BME280;7542;49.078;9.194;2023-05-12T02:53:12;98284.91;;;28.35;33.14
14902;BME280;7542;49.078;9.194;2023-05-12T02:54:14;98285.22;;;28.34;32.89
14902;BME280;7542;49.078;9.194;2023-05-12T02:55:16;98290.59;;;28.34;33.27
14902;BME280;7542;49.078;9.194;2023-05-12T02:56:18;98290.31;;;28.35;33.23
14902;BME280;7542;49.078;9.194;2023-05-12T02:57:22;98281.72;;;28.33;33.41
14902;BME280;7542;49.078;9.194;2023-05-12T02:58:24;98288.16;;;28.32;33.14
14902;BME280;7542;49.078;9.194;2023-05-12T02:59:26;98286.28;;;28.33;33.33
14902;BME280;7542;49.078;9.194;2023-05-12T03:00:28;98283.31;;;28.34;33.13
14902;BME280;7542;49.078;9.194;2023-05-12T03:01:29;98292.50;;;28.33;33.29
14902;BME280;7542;49.078;9.194;2023-05-12T03:02:34;98281.72;;;28.33;33.25
14902;BME280;7542;49.078;9.194;2023-05-12T03:03:36;98287.09;;;28.33;33.40
14902;BME280;7542;49.078;9.194;2023-05-12T03:04:38;98283.88;;;28.31;33.17
14902;BME280;7542;49.078;9.194;2023-05-12T03:05:40;98289.25;;;28.31;33.43
14902;BME280;7542;49.078;9.194;2023-05-12T03:06:42;98282.28;;;28.30;33.39
14902;BME280;7542;49.078;9.194;2023-05-12T03:07:44;98281.19;;;28.31;33.30
14902;BME280;7542;49.078;9.194;2023-05-12T03:08:49;98288.47;;;28.30;33.39
14902;BME280;7542;49.078;9.194;2023-05-12T03:09:51;98290.06;;;28.32;33.29
14902;BME280;7542;49.078;9.194;2023-05-12T03:10:53;98287.66;;;28.30;33.50
14902;BME280;7542;49.078;9.194;2023-05-12T03:11:55;98283.06;;;28.30;33.37
14902;BME280;7542;49.078;9.194;2023-05-12T03:12:56;98286.06;;;28.29;33.48
14902;BME280;7542;49.078;9.194;2023-05-12T03:13:58;98281.47;;;28.29;33.33
14902;BME280;7542;49.078;9.194;2023-05-12T03:15:01;98282.28;;;28.30;33.44
14902;BME280;7542;49.078;9.194;2023-05-12T03:16:05;98281.78;;;28.28;33.40
14902;BME280;7542;49.078;9.194;2023-05-12T03:17:07;98283.38;;;28.29;33.40
14902;BME280;7542;49.078;9.194;2023-05-12T03:18:09;98277.97;;;28.29;33.25
14902;BME280;7542;49.078;9.194;2023-05-12T03:19:11;98283.38;;;28.29;33.41
14902;BME280;7542;49.078;9.194;2023-05-12T03:20:13;98280.97;;;28.27;33.30
14902;BME280;7542;49.078;9.194;2023-05-12T03:21:16;98278.28;;;28.27;33.26
14902;BME280;7542;49.078;9.194;2023-05-12T03:22:18;98280.13;;;28.27;33.23
14902;BME280;7542;49.078;9.194;2023-05-12T03:23:19;98282.28;;;28.30;33.35
14902;BME280;7542;49.078;9.194;2023-05-12T03:24:22;98286.38;;;28.27;33.23
14902;BME280;7542;49.078;9.194;2023-05-12T03:25:24;98280.97;;;28.27;33.40
14902;BME280;7542;49.078;9.194;2023-05-12T03:26:26;98289.31;;;28.26;33.38
14902;BME280;7542;49.078;9.194;2023-05-12T03:27:28;98285.03;;;28.25;33.25
14902;BME280;7542;49.078;9.194;2023-05-12T03:28:30;98283.13;;;28.25;33.63
14902;BME280;7542;49.078;9.194;2023-05-12T03:29:33;98283.13;;;28.25;33.31
14902;BME280;7542;49.078;9.194;2023-05-12T03:30:34;98283.13;;;28.25;33.65
14902;BME280;7542;49.078;9.194;2023-05-12T03:31:36;98281.22;;;28.26;33.40
14902;BME280;7542;49.078;9.194;2023-05-12T03:32:38;98285.81;;;28.25;33.55
14902;BME280;7542;49.078;9.194;2023-05-12T03:33:41;98281.81;;;28.23;33.59
14902;BME280;7542;49.078;9.194;2023-05-12T03:34:43;98285.03;;;28.25;33.40
14902;BME280;7542;49.078;9.194;2023-05-12T03:35:45;98281.81;;;28.23;33.30
14902;BME280;7542;49.078;9.194;2023-05-12T03:36:47;98286.13;;;28.24;33.51
14902;BME280;7542;49.078;9.194;2023-05-12T03:37:48;98285.59;;;28.22;33.42
14902;BME280;7542;49.078;9.194;2023-05-12T03:38:50;98280.19;;;28.22;33.44
14902;BME280;7542;49.078;9.194;2023-05-12T03:39:52;98291.81;;;28.22;33.49
14902;BME280;7542;49.078;9.194;2023-05-12T03:41:06;98290.41;;;28.25;33.31
14902;BME280;7542;49.078;9.194;2023-05-12T03:42:09;98289.91;;;28.23;33.49
14902;BME280;7542;49.078;9.194;2023-05-12T03:43:11;98287.47;;;28.21;33.61
14902;BME280;7542;49.078;9.194;2023-05-12T03:44:13;98286.97;;;28.19;33.47
14902;BME280;7542;49.078;9.194;2023-05-12T03:45:15;98289.38;;;28.21;33.39
14902;BME280;7542;49.078;9.194;2023-05-12T03:46:17;98286.47;;;28.17;33.37
14902;BME280;7542;49.078;9.194;2023-05-12T03:47:19;98281.59;;;28.19;33.59
14902;BME280;7542;49.078;9.194;2023-05-12T03:48:21;98290.78;;;28.18;33.31
14902;BME280;7542;49.078;9.194;2023-05-12T03:49:24;98286.97;;;28.19;33.55
14902;BME280;7542;49.078;9.194;2023-05-12T03:50:25;98292.38;;;28.19;33.36
14902;BME280;7542;49.078;9.194;2023-05-12T03:51:27;98277.59;;;28.17;33.50
14902;BME280;7542;49.078;9.194;2023-05-12T03:52:29;98286.78;;;28.16;33.43
14902;BME280;7542;49.078;9.194;2023-05-12T03:53:31;98285.97;;;28.15;33.59
14902;BME280;7542;49.078;9.194;2023-05-12T03:54:33;98281.09;;;28.17;33.44
14902;BME280;7542;49.078;9.194;2023-05-12T03:55:38;98286.78;;;28.16;33.54
14902;BME280;7542;49.078;9.194;2023-05-12T03:56:40;98288.66;;;28.15;33.58
14902;BME280;7542;49.078;9.194;2023-05-12T03:57:42;98281.38;;;28.16;33.48
14902;BME280;7542;49.078;9.194;2023-05-12T03:58:44;98286.47;;;28.17;33.34
14902;BME280;7542;49.078;9.194;2023-05-12T03:59:49;98285.97;;;28.15;33.72
14902;BME280;7542;49.078;9.194;2023-05-12T04:00:51;98282.78;;;28.13;33.41
14902;BME280;7542;49.078;9.194;2023-05-12T04:01:57;98287.38;;;28.13;33.51
14902;BME280;7542;49.078;9.194;2023-05-12T04:02:59;98294.34;;;28.14;33.50
14902;BME280;7542;49.078;9.194;2023-05-12T04:04:02;98288.16;;;28.13;33.62
14902;BME280;7542;49.078;9.194;2023-05-12T04:05:04;98282.53;;;28.10;33.58
14902;BME280;7542;49.078;9.194;2023-05-12T04:06:08;98283.56;;;28.14;33.52
14902;BME280;7542;49.078;9.194;2023-05-12T04:07:11;98284.94;;;28.11;33.50
14902;BME280;7542;49.078;9.194;2023-05-12T04:08:13;98288.72;;;28.10;33.50
14902;BME280;7542;49.078;9.194;2023-05-12T04:09:15;98282.53;;;28.10;33.79
14902;BME280;7542;49.078;9.194;2023-05-12T04:10:17;98287.94;;;28.10;33.66
14902;BME280;7542;49.078;9.194;2023-05-12T04:11:19;98288.72;;;28.10;33.57
14902;BME280;7542;49.078;9.194;2023-05-12T04:12:21;98277.16;;;28.10;33.56
14902;BME280;7542;49.078;9.194;2023-05-12T04:13:24;98283.34;;;28.10;33.65
14902;BME280;7542;49.078;9.194;2023-05-12T04:14:26;98283.94;;;28.07;33.58
14902;BME280;7542;49.078;9.194;2023-05-12T04:15:43;98282.53;;;28.10;33.48
14902;BME280;7542;49.078;9.194;2023-05-12T04:16:45;98280.13;;;28.08;33.50
14902;BME280;7542;49.078;9.194;2023-05-12T04:17:47;98289.03;;;28.09;33.65
14902;BME280;7542;49.078;9.194;2023-05-12T04:18:49;98280.13;;;28.08;33.57
14902;BME280;7542;49.078;9.194;2023-05-12T04:19:51;98283.13;;;28.07;33.63
14902;BME280;7542;49.078;9.194;2023-05-12T04:20:54;98277.44;;;28.08;33.25
14902;BME280;7542;49.078;9.194;2023-05-12T04:21:57;98279.34;;;28.08;33.65
14902;BME280;7542;49.078;9.194;2023-05-12T04:22:59;98290.91;;;28.08;33.58
14902;BME280;7542;49.078;9.194;2023-05-12T04:24:00;98287.41;;;28.08;33.53
14902;BME280;7542;49.078;9.194;2023-05-12T04:25:03;98290.91;;;28.08;33.58
14902;BME280;7542;49.078;9.194;2023-05-12T04:26:05;98284.13;;;28.11;33.69
14902;BME280;7542;49.078;9.194;2023-05-12T04:27:07;98287.13;;;28.09;33.68
14902;BME280;7542;49.078;9.194;2023-05-12T04:28:10;98282.53;;;28.10;33.67
14902;BME280;7542;49.078;9.194;2023-05-12T04:29:13;98288.72;;;28.10;33.57
14902;BME280;7542;49.078;9.194;2023-05-12T04:30:15;98290.31;;;28.11;33.56
14902;BME280;7542;49.078;9.194;2023-05-12T04:31:17;98291.16;;;28.12;33.49
14902;BME280;7542;49.078;9.194;2023-05-12T04:32:19;98292.75;;;28.13;33.44
14902;BME280;7542;49.078;9.194;2023-05-12T04:33:21;98289.53;;;28.11;33.57
14902;BME280;7542;49.078;9.194;2023-05-12T04:34:23;98293.84;;;28.12;33.57
14902;BME280;7542;49.078;9.194;2023-05-12T04:35:25;98293.03;;;28.11;33.61
14902;BME280;7542;49.078;9.194;2023-05-12T04:36:27;98300.31;;;28.11;33.64
14902;BME280;7542;49.078;9.194;2023-05-12T04:37:29;98296.53;;;28.12;33.69
14902;BME280;7542;49.078;9.194;2023-05-12T04:38:31;98298.72;;;28.10;33.58
14902;BME280;7542;49.078;9.194;2023-05-12T04:39:32;98303.53;;;28.13;33.59
14902;BME280;7542;49.078;9.194;2023-05-12T04:40:34;98300.31;;;28.11;33.63
14902;BME280;7542;49.078;9.194;2023-05-12T04:41:36;98302.19;;;28.10;33.55
14902;BME280;7542;49.078;9.194;2023-05-12T04:42:38;98294.41;;;28.09;33.57
14902;BME280;7542;49.078;9.194;2023-05-12T04:43:40;98300.31;;;28.11;33.60
14902;BME280;7542;49.078;9.194;2023-05-12T04:44:45;98294.66;;;28.12;33.45
14902;BME280;7542;49.078;9.194;2023-05-12T04:45:49;98299.25;;;28.12;33.44
14902;BME280;7542;49.078;9.194;2023-05-12T04:46:52;98300.03;;;28.12;33.62
14902;BME280;7542;49.078;9.194;2023-05-12T04:47:56;98300.03;;;28.12;33.40
14902;BME280;7542;49.078;9.194;2023-05-12T04:48:59;98293.31;;;28.10;33.52
14902;BME280;7542;49.078;9.194;2023-05-12T04:50:01;98294.13;;;28.10;33.65
14902;BME280;7542;49.078;9.194;2023-05-12T04:51:03;98298.41;;;28.11;33.56
14902;BME280;7542;49.078;9.194;2023-05-12T04:52:05;98296.81;;;28.10;33.42
14902;BME280;7542;49.078;9.194;2023-05-12T04:53:07;98302.75;;;28.12;33.50
14902;BME280;7542;49.078;9.194;2023-05-12T04:54:12;98304.09;;;28.10;33.66
14902;BME280;7542;49.078;9.194;2023-05-12T04:55:14;98307.31;;;28.12;33.60
14902;BME280;7542;49.078;9.194;2023-05-12T04:56:16;98299.50;;;28.10;33.48
14902;BME280;7542;49.078;9.194;2023-05-12T04:57:18;98310.03;;;28.12;33.54
14902;BME280;7542;49.078;9.194;2023-05-12T04:58:20;98301.94;;;28.12;33.51
14902;BME280;7542;49.078;9.194;2023-05-12T04:59:22;98304.91;;;28.10;33.82
14902;BME280;7542;49.078;9.194;2023-05-12T05:00:24;98299.50;;;28.10;33.64
14902;BME280;7542;49.078;9.194;2023-05-12T05:01:26;98309.50;;;28.10;33.37
14902;BME280;7542;49.078;9.194;2023-05-12T05:02:28;98306.00;;;28.09;33.50
14902;BME280;7542;49.078;9.194;2023-05-12T05:03:30;98305.69;;;28.11;33.51
14902;BME280;7542;49.078;9.194;2023-05-12T05:04:33;98309.50;;;28.10;33.50
14902;BME280;7542;49.078;9.194;2023-05-12T05:05:35;98311.38;;;28.09;33.72
14902;BME280;7542;49.078;9.194;2023-05-12T05:06:36;98314.38;;;28.08;33.88
14902;BME280;7542;49.078;9.194;2023-05-12T05:07:39;98309.78;;;28.08;33.59
14902;BME280;7542;49.078;9.194;2023-05-12T05:08:41;98314.09;;;28.09;33.65
14902;BME280;7542;49.078;9.194;2023-05-12T05:09:43;98309.78;;;28.08;33.66
14902;BME280;7542;49.078;9.194;2023-05-12T05:10:45;98310.59;;;28.09;33.34
14902;BME280;7542;49.078;9.194;2023-05-12T05:11:47;98308.69;;;28.09;33.74
14902;BME280;7542;49.078;9.194;2023-05-12T05:12:49;98310.59;;;28.09;33.56
14902;BME280;7542;49.078;9.194;2023-05-12T05:13:51;98313.28;;;28.09;33.59
14902;BME280;7542;49.078;9.194;2023-05-12T05:14:53;98309.78;;;28.08;33.65
14902;BME280;7542;49.078;9.194;2023-05-12T05:15:55;98309.50;;;28.10;33.88
14902;BME280;7542;49.078;9.194;2023-05-12T05:16:58;98314.09;;;28.09;33.47
14902;BME280;7542;49.078;9.194;2023-05-12T05:18:00;98306.28;;;28.08;33.65
14902;BME280;7542;49.078;9.194;2023-05-12T05:19:03;98311.69;;;28.08;33.70
14902;BME280;7542;49.078;9.194;2023-05-12T05:20:10;98310.59;;;28.09;33.63
14902;BME280;7542;49.078;9.194;2023-05-12T05:21:15;98314.38;;;28.08;33.52
14902;BME280;7542;49.078;9.194;2023-05-12T05:22:17;98313.56;;;28.07;33.81
14902;BME280;7542;49.078;9.194;2023-05-12T05:23:19;98312.47;;;28.08;33.79
14902;BME280;7542;49.078;9.194;2023-05-12T05:24:21;98316.28;;;28.07;33.72
14902;BME280;7542;49.078;9.194;2023-05-12T05:25:23;98315.19;;;28.08;33.51
14902;BME280;7542;49.078;9.194;2023-05-12T05:26:27;98308.19;;;28.07;33.70
14902;BME280;7542;49.078;9.194;2023-05-12T05:27:29;98316.28;;;28.07;33.50
14902;BME280;7542;49.078;9.194;2023-05-12T05:28:31;98322.75;;;28.06;33.80
14902;BME280;7542;49.078;9.194;2023-05-12T05:29:33;98317.06;;;28.08;33.59
14902;BME280;7542;49.078;9.194;2023-05-12T05:30:35;98326.75;;;28.09;33.51
14902;BME280;7542;49.078;9.194;2023-05-12T05:31:37;98316.28;;;28.07;33.73
14902;BME280;7542;49.078;9.194;2023-05-12T05:32:39;98319.25;;;28.06;33.85
14902;BME280;7542;49.078;9.194;2023-05-12T05:33:43;98324.66;;;28.06;33.96
14902;BME280;7542;49.078;9.194;2023-05-12T05:34:45;98315.75;;;28.05;33.58
14902;BME280;7542;49.078;9.194;2023-05-12T05:35:47;98328.16;;;28.06;33.77
14902;BME280;7542;49.078;9.194;2023-05-12T05:36:49;98326.53;;;28.05;33.61